Old Perlican, Canada
Current Conditions -  °F | °C
As of 11:00 AM on Wednesday 26 Nov 2014 (Local Time) from CYYT Reporting Station
Overcast Overcast  
Wind Chill: 33°   Ceiling: 18000
Heat Index: 43°   Visibility: 15mi
Dew Point: 34°   Wind: 26mph
Humidity: 70%   Direction: 280°W
Pressure: 29.89"   Gusts: 36mph
Location:  48.08°N, 53.02°W
Report Text: CYYT 261400Z 28023G31KT 15SM BKN180 OVC230 06/01 A2989 RMK AC5CI3 PRESRR SLP125
Loading
Personal Weather Stations






























Interactive Weather Map New forecast layout! Learn more

10-Day Weather Forecast

Advertisements
Track Severe Weather on mobile